Time;durP1;ratioP1;P1;durP2;ratioP2;P2;SDS_P1;SDS_P2;PMS_P1;PMS_P2;Temp;Humidity;BMP_temperature;BMP_pressure;BME280_temperature;BME280_humidity;BME280_pressure;Samples;Min_cycle;Max_cycle;Signal;HPM_P1;HPM_P2
2021/08/14 00:04:12;;;;;;;7.97;7.27;;;22.50;99.90;;;;;;9691829;30;20237;-82
2021/08/14 00:09:14;;;;;;;8.70;8.00;;;22.50;99.90;;;;;;9694500;30;20351;-82
2021/08/14 00:14:17;;;;;;;8.33;7.63;;;22.40;99.90;;;;;;9695774;30;20211;-82
2021/08/14 00:19:20;;;;;;;7.97;7.00;;;22.40;99.90;;;;;;9696340;30;20297;-82
2021/08/14 00:24:22;;;;;;;8.13;7.53;;;22.40;99.90;;;;;;9667279;30;20245;-82
2021/08/14 00:29:25;;;;;;;8.20;7.50;;;22.30;99.90;;;;;;9691848;30;20265;-82
2021/08/14 00:34:27;;;;;;;8.60;7.90;;;22.30;99.90;;;;;;9691732;30;20576;-82
2021/08/14 00:39:29;;;;;;;7.50;6.80;;;22.20;99.90;;;;;;9692955;30;20295;-82
2021/08/14 00:44:34;;;;;;;8.10;7.40;;;22.10;99.90;;;;;;9692529;30;20282;-82
2021/08/14 00:49:37;;;;;;;7.67;7.00;;;22.10;99.90;;;;;;9677386;30;20252;-82
2021/08/14 00:54:40;;;;;;;7.83;7.20;;;22.10;99.90;;;;;;9678042;30;20775;-82
2021/08/14 00:59:45;;;;;;;8.73;8.00;;;22.10;99.90;;;;;;9676538;30;20238;-82
2021/08/14 01:04:47;;;;;;;7.50;6.90;;;22.00;99.90;;;;;;9704369;30;20235;-82
2021/08/14 01:09:50;;;;;;;7.97;7.30;;;22.00;99.90;;;;;;9680907;30;20246;-82
2021/08/14 01:14:53;;;;;;;8.80;8.00;;;22.00;99.90;;;;;;9680620;30;20234;-81
2021/08/14 01:19:55;;;;;;;9.33;8.13;;;21.90;99.90;;;;;;9683359;30;20199;-82
2021/08/14 01:24:57;;;;;;;8.73;7.80;;;21.90;99.90;;;;;;9684238;30;20313;-82
2021/08/14 01:30:01;;;;;;;7.87;7.27;;;21.90;99.90;;;;;;9697410;30;20257;-82
2021/08/14 01:35:03;;;;;;;7.90;6.83;;;21.90;99.90;;;;;;9697127;30;20630;-82
2021/08/14 01:40:07;;;;;;;11.10;8.10;;;21.80;99.90;;;;;;9683380;30;20203;-82
2021/08/14 01:45:11;;;;;;;8.70;7.80;;;21.80;99.90;;;;;;9667874;30;20610;-82
2021/08/14 01:50:13;;;;;;;7.63;7.03;;;21.70;99.90;;;;;;9698412;30;20235;-82
2021/08/14 01:55:15;;;;;;;7.57;6.97;;;21.70;99.90;;;;;;9682358;30;20320;-82
2021/08/14 02:00:19;;;;;;;7.50;6.90;;;21.70;99.90;;;;;;9699626;30;20657;-82
2021/08/14 02:05:21;;;;;;;8.47;7.10;;;21.60;99.90;;;;;;9699947;30;20238;-82
2021/08/14 02:10:23;;;;;;;8.17;7.37;;;21.60;99.90;;;;;;9696358;30;20249;-82
2021/08/14 02:15:26;;;;;;;9.10;8.20;;;21.60;99.90;;;;;;9698364;30;20751;-82
2021/08/14 02:20:28;;;;;;;10.93;8.53;;;21.60;99.90;;;;;;9697908;30;20701;-82
2021/08/14 02:25:30;;;;;;;8.63;7.83;;;21.60;99.90;;;;;;9696708;30;20611;-82
2021/08/14 02:30:34;;;;;;;8.50;7.80;;;21.50;99.90;;;;;;9708759;30;20231;-81
2021/08/14 02:35:36;;;;;;;8.73;8.03;;;21.50;99.90;;;;;;9685305;30;20311;-82
2021/08/14 02:40:38;;;;;;;11.73;7.60;;;21.50;99.90;;;;;;9661511;30;20704;-82
2021/08/14 02:45:42;;;;;;;9.87;8.97;;;21.40;99.90;;;;;;9660330;30;20257;-82
2021/08/14 02:50:46;;;;;;;8.40;7.80;;;21.30;99.90;;;;;;9662356;30;20255;-82
2021/08/14 02:55:48;;;;;;;8.97;8.17;;;21.30;99.90;;;;;;9665184;30;20229;-81
2021/08/14 03:00:51;;;;;;;8.80;8.10;;;21.30;99.90;;;;;;9671467;30;20211;-82
2021/08/14 03:05:53;;;;;;;8.70;7.97;;;21.20;99.90;;;;;;9644609;30;20246;-81
2021/08/14 03:10:55;;;;;;;8.00;7.30;;;21.20;99.90;;;;;;9694370;30;20245;-82
2021/08/14 03:15:59;;;;;;;8.30;7.60;;;21.20;99.90;;;;;;9678670;30;20234;-82
2021/08/14 03:21:01;;;;;;;8.73;7.93;;;21.10;99.90;;;;;;9678768;30;20211;-82
2021/08/14 03:26:03;;;;;;;10.90;8.23;;;21.10;99.90;;;;;;9679377;30;20261;-82
2021/08/14 03:31:06;;;;;;;9.17;8.40;;;21.10;99.90;;;;;;9679158;30;20258;-82
2021/08/14 03:36:09;;;;;;;9.77;8.90;;;21.10;99.90;;;;;;9680921;30;20252;-82
2021/08/14 03:41:11;;;;;;;9.87;8.00;;;21.00;99.90;;;;;;9667667;30;20246;-82
2021/08/14 03:46:14;;;;;;;9.03;8.13;;;21.00;99.90;;;;;;9680464;30;20334;-81
2021/08/14 03:51:16;;;;;;;8.20;7.50;;;21.00;99.90;;;;;;9660926;30;20736;-82
2021/08/14 03:56:18;;;;;;;9.20;8.30;;;20.90;99.90;;;;;;9691687;30;20231;-82
2021/08/14 04:01:22;;;;;;;9.60;8.80;;;20.90;99.90;;;;;;9692146;30;20222;-82
2021/08/14 04:06:24;;;;;;;9.73;8.87;;;20.90;99.90;;;;;;9677436;30;20235;-82
2021/08/14 04:11:26;;;;;;;8.50;7.80;;;20.80;99.90;;;;;;9693578;30;20340;-82
2021/08/14 04:16:29;;;;;;;9.00;8.10;;;20.80;99.90;;;;;;9676555;30;20230;-81
2021/08/14 04:21:31;;;;;;;10.07;8.43;;;20.80;99.90;;;;;;9678377;30;20325;-82
2021/08/14 04:26:33;;;;;;;8.87;8.07;;;20.70;99.90;;;;;;9663256;30;20249;-81
2021/08/14 04:31:37;;;;;;;9.13;8.23;;;20.70;99.90;;;;;;9693760;30;20234;-81
2021/08/14 04:36:39;;;;;;;8.47;7.70;;;20.80;99.90;;;;;;9682996;30;20269;-81
2021/08/14 04:41:41;;;;;;;8.50;7.80;;;20.70;99.90;;;;;;9703064;30;20661;-81
2021/08/14 04:46:44;;;;;;;9.00;8.10;;;20.80;99.90;;;;;;9704148;30;20309;-80
2021/08/14 04:51:47;;;;;;;8.33;7.63;;;20.80;99.90;;;;;;9685776;30;20773;-81
2021/08/14 04:56:49;;;;;;;9.00;8.20;;;20.80;99.90;;;;;;9700411;30;20235;-81
2021/08/14 05:01:52;;;;;;;10.63;7.80;;;20.80;99.90;;;;;;9713883;30;20215;-81
2021/08/14 05:06:54;;;;;;;8.63;8.03;;;20.80;99.90;;;;;;9693649;30;20237;-80
2021/08/14 05:11:56;;;;;;;8.53;7.83;;;20.90;99.90;;;;;;9688350;30;20253;-81
2021/08/14 05:17:00;;;;;;;8.73;8.03;;;20.90;99.90;;;;;;9680608;30;20231;-81
2021/08/14 05:22:02;;;;;;;9.20;8.50;;;20.90;99.90;;;;;;9682256;30;20226;-81
2021/08/14 05:27:04;;;;;;;9.40;8.70;;;20.90;99.90;;;;;;9673707;30;20226;-81
2021/08/14 05:32:09;;;;;;;9.03;8.23;;;20.90;99.90;;;;;;9649034;30;20247;-81
2021/08/14 05:37:11;;;;;;;9.60;8.70;;;21.00;99.90;;;;;;9734051;24;20255;-80
2021/08/14 05:42:13;;;;;;;10.30;9.20;;;21.00;99.90;;;;;;9765513;30;20826;-80
2021/08/14 05:47:16;;;;;;;9.57;8.67;;;21.00;99.90;;;;;;9732328;30;20245;-80
2021/08/14 05:52:18;;;;;;;9.17;8.37;;;21.00;99.90;;;;;;9701993;30;20237;-80
2021/08/14 05:57:20;;;;;;;9.63;8.83;;;21.10;99.90;;;;;;9730905;30;20237;-80
2021/08/14 06:02:24;;;;;;;9.00;8.23;;;21.10;99.90;;;;;;9736549;30;20277;-80
2021/08/14 06:07:26;;;;;;;10.60;9.00;;;21.10;99.90;;;;;;9699880;30;20360;-80
2021/08/14 06:12:28;;;;;;;8.97;8.20;;;21.20;99.90;;;;;;9690494;30;20238;-80
2021/08/14 06:17:31;;;;;;;10.03;9.13;;;21.20;99.90;;;;;;9697059;30;20234;-80
2021/08/14 06:22:35;;;;;;;10.30;9.00;;;21.30;99.90;;;;;;9667092;30;20585;-80
2021/08/14 06:27:37;;;;;;;9.93;9.23;;;21.30;99.90;;;;;;9666819;30;20673;-80
2021/08/14 06:32:41;;;;;;;10.43;9.50;;;21.40;99.90;;;;;;9680918;30;20693;-80
2021/08/14 06:37:43;;;;;;;10.17;9.37;;;21.50;99.90;;;;;;9693211;30;20609;-83
2021/08/14 06:42:45;;;;;;;11.23;9.10;;;21.50;99.90;;;;;;9713255;30;20729;-82
2021/08/14 06:47:49;;;;;;;9.80;8.93;;;21.60;99.90;;;;;;9734001;30;20703;-80
2021/08/14 06:52:51;;;;;;;10.00;9.20;;;21.70;99.90;;;;;;9733636;30;20631;-83
2021/08/14 06:57:53;;;;;;;10.67;9.80;;;21.80;99.90;;;;;;9728407;30;20700;-83
2021/08/14 07:02:57;;;;;;;10.17;9.37;;;21.90;99.90;;;;;;9731055;30;20300;-80
2021/08/14 07:07:59;;;;;;;10.37;9.37;;;22.00;99.90;;;;;;9729435;30;20692;-83
2021/08/14 07:13:02;;;;;;;9.60;8.83;;;22.00;99.90;;;;;;9710780;30;20214;-83
2021/08/14 07:18:06;;;;;;;10.63;9.73;;;22.10;99.90;;;;;;9696229;30;20367;-83
2021/08/14 07:23:08;;;;;;;11.37;10.37;;;22.30;99.90;;;;;;9711146;30;20676;-83
2021/08/14 07:28:10;;;;;;;12.67;11.37;;;22.30;99.90;;;;;;9710322;30;20666;-83
2021/08/14 07:33:14;;;;;;;10.87;9.77;;;22.50;99.90;;;;;;9695772;30;20291;-83
2021/08/14 07:38:17;;;;;;;12.20;11.10;;;22.70;99.90;;;;;;9679323;30;20280;-80
2021/08/14 07:43:19;;;;;;;11.47;10.40;;;23.00;99.90;;;;;;9670460;30;20252;-80
2021/08/14 07:48:22;;;;;;;12.60;11.40;;;23.50;99.90;;;;;;9670563;30;20606;-80
2021/08/14 07:53:24;;;;;;;10.37;9.40;;;23.90;99.90;;;;;;9685730;30;20302;-80
2021/08/14 07:58:27;;;;;;;12.03;9.70;;;24.30;99.90;;;;;;9671375;30;20262;-80
2021/08/14 08:03:30;;;;;;;11.13;10.00;;;24.70;99.90;;;;;;9672194;30;20246;-81
2021/08/14 08:08:34;;;;;;;10.83;9.83;;;25.00;99.90;;;;;;9697091;30;20239;-81
2021/08/14 08:13:36;;;;;;;11.60;10.37;;;25.30;99.90;;;;;;9687959;30;20238;-81
2021/08/14 08:18:39;;;;;;;9.83;8.83;;;25.60;99.90;;;;;;9703096;30;20321;-81
2021/08/14 08:23:42;;;;;;;10.33;9.43;;;25.80;99.90;;;;;;9687495;30;20643;-80
2021/08/14 08:28:44;;;;;;;9.20;8.30;;;26.00;99.90;;;;;;9681875;30;20238;-80
2021/08/14 08:33:47;;;;;;;9.10;8.40;;;26.40;99.90;;;;;;9673061;30;20362;-80
2021/08/14 08:38:49;;;;;;;15.37;9.60;;;26.70;99.90;;;;;;9680036;30;20631;-81
2021/08/14 08:43:51;;;;;;;8.47;7.70;;;27.10;99.90;;;;;;9679031;30;20214;-81
2021/08/14 08:48:56;;;;;;;9.37;8.63;;;27.40;99.90;;;;;;9675479;30;20317;-81
2021/08/14 08:53:59;;;;;;;9.00;8.30;;;27.60;99.90;;;;;;9674251;30;20285;-81
2021/08/14 08:59:01;;;;;;;9.53;8.57;;;27.70;99.90;;;;;;9675114;30;20235;-81
2021/08/14 09:04:23;;;;;;;8.40;7.70;;;27.70;99.30;;;;;;9674447;30;20658;-81
2021/08/14 09:09:27;;;;;;;9.43;8.50;;;27.70;98.90;;;;;;9711521;30;20262;-81
2021/08/14 09:14:29;;;;;;;8.43;7.73;;;27.60;99.80;;;;;;9697727;30;20206;-81
2021/08/14 09:19:33;;;;;;;9.07;8.27;;;27.50;99.90;;;;;;9728885;30;20247;-81
2021/08/14 09:24:38;;;;;;;8.30;7.60;;;27.40;99.90;;;;;;9705358;30;20680;-81
2021/08/14 09:29:40;;;;;;;8.80;7.93;;;27.50;98.50;;;;;;9718775;30;20234;-81
2021/08/14 09:34:47;;;;;;;9.50;7.87;;;27.70;98.50;;;;;;9729153;30;20207;-81
2021/08/14 09:39:51;;;;;;;7.87;7.27;;;28.10;96.90;;;;;;9666861;30;20242;-81
2021/08/14 09:45:13;;;;;;;9.70;7.17;;;28.50;97.30;;;;;;9681389;30;20211;-81
2021/08/14 09:50:17;;;;;;;7.70;7.13;;;28.90;96.20;;;;;;9694988;30;20254;-81
2021/08/14 09:55:26;;;;;;;7.83;7.23;;;29.20;95.10;;;;;;9694762;30;20720;-81
2021/08/14 10:00:32;;;;;;;8.00;7.40;;;29.60;95.30;;;;;;9693801;30;20282;-81
2021/08/14 10:05:36;;;;;;;8.63;7.93;;;29.80;94.30;;;;;;9689568;30;20246;-81
2021/08/14 10:10:38;;;;;;;8.93;8.10;;;30.10;94.00;;;;;;9728427;30;20265;-81
2021/08/14 10:15:41;;;;;;;8.20;7.40;;;30.30;93.20;;;;;;9713564;30;20237;-81
2021/08/14 10:20:44;;;;;;;7.53;6.83;;;30.50;92.70;;;;;;9730930;30;20304;-81
2021/08/14 10:25:48;;;;;;;8.30;7.63;;;30.40;93.20;;;;;;9703004;30;20260;-81
2021/08/14 10:30:53;;;;;;;8.90;8.03;;;30.00;92.20;;;;;;9717666;30;20242;-81
2021/08/14 10:35:58;;;;;;;8.50;7.80;;;29.60;92.60;;;;;;9687734;30;20262;-81
2021/08/14 10:41:02;;;;;;;8.33;7.63;;;29.20;94.40;;;;;;9668034;30;20214;-81
2021/08/14 10:46:38;;;;;;;9.13;8.33;;;28.80;94.20;;;;;;9668763;30;20687;-81
2021/08/14 10:52:13;;;;;;;8.70;7.90;;;28.60;94.00;;;;;;9691324;30;20306;-81
2021/08/14 10:57:17;;;;;;;8.50;7.73;;;28.30;95.20;;;;;;9621661;30;20333;-81
2021/08/14 11:02:33;;;;;;;8.73;8.13;;;28.10;94.40;;;;;;9679634;30;20230;-81
2021/08/14 11:07:42;;;;;;;9.60;8.70;;;28.00;93.90;;;;;;9691666;30;20794;-81
2021/08/14 11:12:47;;;;;;;9.90;9.00;;;27.90;95.00;;;;;;9701638;30;20270;-81
2021/08/14 11:17:51;;;;;;;9.53;8.73;;;27.80;95.40;;;;;;9729274;30;20661;-81
2021/08/14 11:22:55;;;;;;;7.50;6.80;;;27.70;95.00;;;;;;9732227;30;20206;-81
2021/08/14 11:28:00;;;;;;;7.80;7.20;;;27.70;96.10;;;;;;9716528;30;20240;-81
2021/08/14 11:33:04;;;;;;;9.07;8.37;;;27.70;96.20;;;;;;9701471;30;20287;-81
2021/08/14 11:38:09;;;;;;;9.70;8.37;;;27.80;96.10;;;;;;9716573;30;20277;-81
2021/08/14 11:43:13;;;;;;;10.20;9.30;;;27.90;96.40;;;;;;9714913;30;20695;-81
2021/08/14 11:48:17;;;;;;;9.77;8.97;;;28.10;94.80;;;;;;9715757;30;20237;-81
2021/08/14 11:53:26;;;;;;;9.17;8.47;;;28.20;95.60;;;;;;9731613;30;20776;-81
2021/08/14 11:58:29;;;;;;;9.57;8.70;;;28.20;95.00;;;;;;9715667;30;20238;-81
2021/08/14 12:03:31;;;;;;;9.17;8.40;;;28.20;94.80;;;;;;9716150;30;20218;-81
2021/08/14 12:08:36;;;;;;;9.37;8.57;;;28.30;94.90;;;;;;9715562;30;20242;-81
2021/08/14 12:13:39;;;;;;;9.03;8.13;;;28.40;94.50;;;;;;9700955;30;20241;-81
2021/08/14 12:18:43;;;;;;;9.53;8.70;;;28.50;94.50;;;;;;9701346;30;20729;-81
2021/08/14 12:23:47;;;;;;;9.10;8.40;;;28.40;93.90;;;;;;9719594;30;20583;-81
2021/08/14 12:28:59;;;;;;;10.03;9.13;;;28.30;94.50;;;;;;9722611;30;20244;-81
2021/08/14 12:34:01;;;;;;;9.47;8.50;;;28.30;94.50;;;;;;9721604;30;20209;-81
2021/08/14 12:39:06;;;;;;;9.30;8.40;;;28.10;95.00;;;;;;9708917;30;20336;-81
2021/08/14 12:44:10;;;;;;;9.83;8.93;;;27.90;95.20;;;;;;9719315;30;20719;-81
2021/08/14 12:49:23;;;;;;;8.07;7.40;;;27.80;95.50;;;;;;9735788;30;20226;-81
2021/08/14 12:54:28;;;;;;;10.37;9.30;;;27.60;95.40;;;;;;9743911;30;20293;-81
2021/08/14 12:59:30;;;;;;;9.53;8.47;;;27.50;94.90;;;;;;9735183;30;20228;-81
2021/08/14 13:04:32;;;;;;;10.03;9.13;;;27.50;96.30;;;;;;9719770;30;20206;-81
2021/08/14 13:09:36;;;;;;;8.67;7.83;;;27.40;95.80;;;;;;9719812;30;20234;-81
2021/08/14 13:14:39;;;;;;;12.57;9.07;;;27.50;95.90;;;;;;9721647;30;20635;-80
2021/08/14 13:19:41;;;;;;;9.53;8.73;;;27.70;94.80;;;;;;9701983;30;20213;-81
2021/08/14 13:24:45;;;;;;;9.80;8.80;;;28.00;94.90;;;;;;9703704;30;20207;-81
2021/08/14 13:29:47;;;;;;;9.73;8.83;;;28.10;94.90;;;;;;9674158;30;20226;-81
2021/08/14 13:34:49;;;;;;;10.50;8.67;;;28.10;95.10;;;;;;9699933;30;20596;-81
2021/08/14 13:39:52;;;;;;;9.43;8.63;;;28.00;94.80;;;;;;9683122;30;20211;-81
2021/08/14 13:44:56;;;;;;;10.63;9.70;;;27.90;95.40;;;;;;9698795;30;20252;-81
2021/08/14 13:49:58;;;;;;;10.50;8.57;;;27.80;95.10;;;;;;9733569;30;20332;-81
2021/08/14 13:55:01;;;;;;;8.63;8.00;;;27.70;95.90;;;;;;9732334;30;20799;-81
2021/08/14 14:00:04;;;;;;;9.47;8.60;;;27.60;95.80;;;;;;9718678;30;20289;-81
2021/08/14 14:05:07;;;;;;;10.47;9.57;;;27.60;94.80;;;;;;9733587;30;20288;-81
2021/08/14 14:10:11;;;;;;;10.10;9.10;;;27.70;94.60;;;;;;9741883;30;20222;-80
2021/08/14 14:15:13;;;;;;;7.87;7.27;;;27.70;94.30;;;;;;9732802;30;20245;-81
2021/08/14 14:20:16;;;;;;;9.27;8.47;;;27.70;95.30;;;;;;9720014;30;20210;-81
2021/08/14 14:25:19;;;;;;;8.37;7.60;;;27.70;95.80;;;;;;9739075;30;20233;-81
2021/08/14 14:30:21;;;;;;;9.13;8.23;;;27.60;95.70;;;;;;9704291;30;20716;-81
2021/08/14 14:35:23;;;;;;;8.90;8.20;;;27.70;95.70;;;;;;9735571;30;20716;-81
2021/08/14 14:40:27;;;;;;;8.73;8.07;;;27.70;95.30;;;;;;9719810;30;20217;-81
2021/08/14 14:45:30;;;;;;;9.00;8.30;;;27.80;95.80;;;;;;9715421;30;20609;-81
2021/08/14 14:50:32;;;;;;;9.27;8.47;;;27.70;96.50;;;;;;9684908;30;20245;-81
2021/08/14 14:55:35;;;;;;;9.83;8.90;;;27.70;96.00;;;;;;9700471;30;20235;-81
2021/08/14 15:00:37;;;;;;;10.40;9.50;;;27.60;97.10;;;;;;9685580;30;20199;-81
2021/08/14 15:05:39;;;;;;;9.00;8.20;;;27.50;95.30;;;;;;9701165;30;20226;-80
2021/08/14 15:10:43;;;;;;;10.40;9.20;;;27.50;95.20;;;;;;9685017;30;20235;-81
2021/08/14 15:15:45;;;;;;;8.67;8.07;;;27.50;94.70;;;;;;9723811;30;20333;-81
2021/08/14 15:20:47;;;;;;;8.53;7.90;;;27.50;95.40;;;;;;9723423;30;20216;-81
2021/08/14 15:25:50;;;;;;;9.43;8.63;;;27.60;95.10;;;;;;9737494;30;20249;-81
2021/08/14 15:30:52;;;;;;;8.40;7.70;;;27.60;95.10;;;;;;9744487;30;20265;-81
2021/08/14 15:35:54;;;;;;;7.93;7.23;;;27.60;95.50;;;;;;9737601;30;20241;-81
2021/08/14 15:40:58;;;;;;;8.70;8.00;;;27.60;95.60;;;;;;9738521;30;20206;-81
2021/08/14 15:46:00;;;;;;;9.07;8.27;;;27.60;96.00;;;;;;9739208;30;20237;-81
2021/08/14 15:51:04;;;;;;;9.10;8.37;;;27.50;95.40;;;;;;9738303;30;20316;-81
2021/08/14 15:56:10;;;;;;;8.43;7.73;;;27.50;94.70;;;;;;9723785;30;20245;-81
2021/08/14 16:01:12;;;;;;;9.30;8.50;;;27.50;95.90;;;;;;9736477;30;20698;-81
2021/08/14 16:06:14;;;;;;;8.83;7.93;;;27.50;95.90;;;;;;9740040;30;20238;-80
2021/08/14 16:11:18;;;;;;;11.43;8.23;;;27.40;95.50;;;;;;9713595;30;20239;-80
2021/08/14 16:16:20;;;;;;;9.47;8.67;;;27.50;95.70;;;;;;9685204;30;20245;-81
2021/08/14 16:21:23;;;;;;;9.20;8.47;;;27.40;96.00;;;;;;9692942;30;20229;-81
2021/08/14 16:26:26;;;;;;;9.20;7.03;;;27.40;95.60;;;;;;9699982;30;20597;-81
2021/08/14 16:31:28;;;;;;;9.13;8.33;;;27.40;95.30;;;;;;9705206;30;20227;-80
2021/08/14 16:36:30;;;;;;;8.10;7.50;;;27.40;95.80;;;;;;9701534;30;20348;-80
2021/08/14 16:41:35;;;;;;;9.10;8.40;;;27.30;96.70;;;;;;9693229;30;20271;-81
2021/08/14 16:46:37;;;;;;;8.93;8.20;;;27.20;95.50;;;;;;9692335;30;20266;-81
2021/08/14 16:51:40;;;;;;;7.30;6.80;;;27.20;95.40;;;;;;9693891;30;20234;-81
2021/08/14 16:56:43;;;;;;;10.10;9.30;;;27.20;96.20;;;;;;9679183;30;20230;-81
2021/08/14 17:01:45;;;;;;;9.57;8.60;;;27.10;96.60;;;;;;9695766;30;20583;-81
2021/08/14 17:06:47;;;;;;;8.70;7.90;;;27.10;96.20;;;;;;9695488;30;20230;-81
2021/08/14 17:11:51;;;;;;;9.53;8.63;;;27.10;97.00;;;;;;9695096;30;20256;-81
2021/08/14 17:16:53;;;;;;;9.20;8.40;;;27.00;96.60;;;;;;9725848;30;20244;-80
2021/08/14 17:21:55;;;;;;;9.13;7.83;;;27.00;96.80;;;;;;9732206;30;20206;-80
2021/08/14 17:26:58;;;;;;;7.93;7.33;;;26.90;97.30;;;;;;9731601;30;20567;-80
2021/08/14 17:32:00;;;;;;;9.43;8.33;;;26.80;98.00;;;;;;9703132;30;20242;-81
2021/08/14 17:37:03;;;;;;;8.10;7.40;;;26.70;97.80;;;;;;9740719;25;20281;-81
2021/08/14 17:42:08;;;;;;;8.77;7.97;;;26.70;97.60;;;;;;9725452;30;20245;-82
2021/08/14 17:47:10;;;;;;;10.30;9.50;;;26.60;97.70;;;;;;9713007;30;20245;-80
2021/08/14 17:52:12;;;;;;;11.30;10.33;;;26.60;97.70;;;;;;9713646;30;20234;-81
2021/08/14 17:57:15;;;;;;;10.30;9.27;;;26.50;98.40;;;;;;9714195;30;20427;-80
2021/08/14 18:02:19;;;;;;;9.77;8.97;;;26.40;98.20;;;;;;9728032;30;20202;-82
2021/08/14 18:07:21;;;;;;;10.63;9.77;;;26.40;98.90;;;;;;9729117;30;20322;-81
2021/08/14 18:12:24;;;;;;;11.47;8.40;;;26.40;99.30;;;;;;9729636;30;20265;-81
2021/08/14 18:17:26;;;;;;;12.07;10.80;;;26.40;99.60;;;;;;9677109;30;20242;-81
2021/08/14 18:22:28;;;;;;;12.87;11.47;;;26.40;99.30;;;;;;9676701;30;20210;-82
2021/08/14 18:27:32;;;;;;;10.80;9.70;;;26.40;99.70;;;;;;9694509;30;20234;-82
2021/08/14 18:32:34;;;;;;;11.17;10.00;;;26.40;99.90;;;;;;9693997;30;20716;-80
2021/08/14 18:37:36;;;;;;;11.10;10.10;;;26.20;99.90;;;;;;9679732;30;20235;-81
2021/08/14 18:42:39;;;;;;;10.97;10.00;;;26.10;99.90;;;;;;9679513;30;20213;-80
2021/08/14 18:47:41;;;;;;;11.47;10.47;;;26.00;99.90;;;;;;9721065;30;20254;-81
2021/08/14 18:52:44;;;;;;;11.33;10.23;;;25.90;99.90;;;;;;9729147;30;20230;-82
2021/08/14 18:57:47;;;;;;;11.90;9.60;;;25.80;99.90;;;;;;9730193;30;20236;-81
2021/08/14 19:02:49;;;;;;;11.87;10.87;;;25.70;99.90;;;;;;9712960;30;20233;-82
2021/08/14 19:07:52;;;;;;;12.93;10.80;;;25.60;99.90;;;;;;9730303;30;20253;-82
2021/08/14 19:12:58;;;;;;;14.50;10.93;;;25.50;99.90;;;;;;9734573;30;20262;-81
2021/08/14 19:18:02;;;;;;;13.13;10.40;;;25.40;99.90;;;;;;9714069;30;20242;-82
2021/08/14 19:23:04;;;;;;;10.77;9.87;;;25.30;99.90;;;;;;9739077;30;20198;-82
2021/08/14 19:28:08;;;;;;;11.23;10.33;;;25.30;99.90;;;;;;9708927;30;20645;-81
2021/08/14 19:33:11;;;;;;;11.73;10.83;;;25.20;99.90;;;;;;9726154;30;20316;-80
2021/08/14 19:38:14;;;;;;;12.73;11.57;;;25.10;99.90;;;;;;9708680;30;20277;-80
2021/08/14 19:43:17;;;;;;;14.10;10.90;;;25.10;99.90;;;;;;9726353;30;20206;-81
2021/08/14 19:48:19;;;;;;;11.87;10.77;;;25.00;99.90;;;;;;9725993;30;20230;-82
2021/08/14 19:53:22;;;;;;;11.77;10.87;;;25.00;99.90;;;;;;9725014;30;20234;-81
2021/08/14 19:58:25;;;;;;;13.63;12.40;;;24.90;99.90;;;;;;9723905;30;20229;-81
2021/08/14 20:03:27;;;;;;;13.63;12.40;;;24.90;99.90;;;;;;9709384;30;20710;-81
2021/08/14 20:08:29;;;;;;;12.33;11.13;;;24.80;99.90;;;;;;9725394;30;20276;-80
2021/08/14 20:13:33;;;;;;;12.57;11.47;;;24.70;99.90;;;;;;9707518;30;20683;-81
2021/08/14 20:18:40;;;;;;;13.83;12.20;;;24.70;99.90;;;;;;9690534;30;20234;-80
2021/08/14 20:23:42;;;;;;;14.43;12.23;;;24.60;99.90;;;;;;9675149;30;20733;-81
2021/08/14 20:28:45;;;;;;;12.80;11.70;;;24.60;99.90;;;;;;9674786;30;20231;-81
2021/08/14 20:33:47;;;;;;;12.10;11.10;;;24.60;99.90;;;;;;9690791;30;20234;-80
2021/08/14 20:38:49;;;;;;;12.83;11.77;;;24.60;99.90;;;;;;9691559;30;20325;-82
2021/08/14 20:43:53;;;;;;;12.50;11.40;;;24.50;99.90;;;;;;9680291;30;20198;-80
2021/08/14 20:48:55;;;;;;;12.37;11.37;;;24.50;99.90;;;;;;9726780;30;20301;-81
2021/08/14 20:53:57;;;;;;;13.40;12.20;;;24.50;99.90;;;;;;9715147;30;20257;-81
2021/08/14 20:59:01;;;;;;;12.30;11.20;;;24.40;99.90;;;;;;9696289;30;20273;-81
2021/08/14 21:04:03;;;;;;;12.47;11.27;;;24.30;99.90;;;;;;9728995;30;20210;-80
2021/08/14 21:09:06;;;;;;;11.50;10.50;;;24.30;99.90;;;;;;9718554;30;20226;-81
2021/08/14 21:14:09;;;;;;;11.60;10.60;;;24.20;99.90;;;;;;9727214;30;20237;-82
2021/08/14 21:19:11;;;;;;;12.00;10.73;;;24.20;99.90;;;;;;9731556;30;20255;-82
2021/08/14 21:24:13;;;;;;;12.13;10.93;;;24.20;99.90;;;;;;9703765;30;20673;-82
2021/08/14 21:29:17;;;;;;;14.07;12.77;;;24.20;99.90;;;;;;9717808;30;20681;-81
2021/08/14 21:34:19;;;;;;;11.20;10.33;;;24.20;99.90;;;;;;9703206;30;20290;-82
2021/08/14 21:39:21;;;;;;;11.33;10.50;;;24.10;99.90;;;;;;9718210;30;20242;-80
2021/08/14 21:44:24;;;;;;;12.17;11.10;;;24.10;99.90;;;;;;9729530;30;20206;-81
2021/08/14 21:49:26;;;;;;;11.97;10.77;;;24.00;99.90;;;;;;9714022;30;20245;-80
2021/08/14 21:54:29;;;;;;;11.93;10.90;;;24.00;99.90;;;;;;9730776;30;20238;-80
2021/08/14 21:59:32;;;;;;;11.10;10.00;;;24.00;99.90;;;;;;9713554;30;20252;-81
2021/08/14 22:04:34;;;;;;;12.07;10.97;;;23.90;99.90;;;;;;9729717;30;20210;-83
2021/08/14 22:09:36;;;;;;;12.33;11.30;;;23.90;99.90;;;;;;9715425;30;20241;-81
2021/08/14 22:14:40;;;;;;;10.80;9.90;;;23.90;99.90;;;;;;9730184;30;20580;-80
2021/08/14 22:19:42;;;;;;;10.80;9.90;;;23.90;99.90;;;;;;9729205;30;20325;-81
2021/08/14 22:24:44;;;;;;;10.83;9.73;;;23.90;99.90;;;;;;9730389;30;20206;-82
2021/08/14 22:29:47;;;;;;;10.67;9.77;;;23.90;99.90;;;;;;9728953;30;20241;-82
2021/08/14 22:34:49;;;;;;;12.23;10.77;;;23.90;99.90;;;;;;9734253;30;20237;-81
2021/08/14 22:39:52;;;;;;;11.93;10.47;;;23.90;99.90;;;;;;9730490;30;20242;-82
2021/08/14 22:44:55;;;;;;;10.53;9.63;;;23.80;99.90;;;;;;9729787;30;20302;-82
2021/08/14 22:49:57;;;;;;;11.07;10.07;;;23.80;99.90;;;;;;9732922;30;20240;-79
2021/08/14 22:55:00;;;;;;;10.97;10.07;;;23.80;99.90;;;;;;9737402;30;20237;-80
2021/08/14 23:00:07;;;;;;;11.23;10.23;;;23.70;99.90;;;;;;9710419;30;20268;-80
2021/08/14 23:05:12;;;;;;;11.10;9.83;;;23.70;99.90;;;;;;9712125;30;20454;-80
2021/08/14 23:10:14;;;;;;;9.80;8.90;;;23.70;99.90;;;;;;9726168;30;20206;-82
2021/08/14 23:15:18;;;;;;;10.27;9.37;;;23.70;99.90;;;;;;9726168;30;20260;-81
2021/08/14 23:20:21;;;;;;;14.87;10.80;;;23.60;99.90;;;;;;9726178;30;20261;-82
2021/08/14 23:25:23;;;;;;;10.77;9.67;;;23.60;99.90;;;;;;9726696;30;20221;-80
2021/08/14 23:30:29;;;;;;;9.93;9.13;;;23.50;99.90;;;;;;9726246;30;20297;-81
2021/08/14 23:40:42;;;;;;;10.63;9.63;;;23.50;99.90;;;;;;9695130;30;20223;-82
2021/08/14 23:45:44;;;;;;;10.30;9.40;;;23.50;99.90;;;;;;9682259;30;20223;-81
2021/08/14 23:50:46;;;;;;;10.87;9.83;;;23.50;99.90;;;;;;9685216;30;20584;-81
2021/08/14 23:55:49;;;;;;;9.73;8.93;;;23.50;99.90;;;;;;9684405;30;20241;-81
